Time;durP1;ratioP1;P1;durP2;ratioP2;P2;SDS_P1;SDS_P2;PMS_P1;PMS_P2;Temp;Humidity;BMP_temperature;BMP_pressure;BME280_temperature;BME280_humidity;BME280_pressure;Samples;Min_cycle;Max_cycle;Signal;HPM_P1;HPM_P2
2024/01/28 00:01:34;;;;;;;;;;;19.90;45.00;;;;;;5043334;28;19927;-54
2024/01/28 00:04:00;;;;;;;;;;;19.90;45.00;;;;;;5075245;28;19921;-55
2024/01/28 00:06:27;;;;;;;;;;;19.90;45.00;;;;;;5058407;28;19924;-56
2024/01/28 00:08:54;;;;;;;;;;;19.90;45.00;;;;;;5061118;28;19921;-57
2024/01/28 00:11:22;;;;;;;;;;;19.90;45.00;;;;;;5072965;28;20134;-54
2024/01/28 00:13:49;;;;;;;;;;;19.90;45.00;;;;;;5040810;28;19966;-55
2024/01/28 00:16:16;;;;;;;;;;;19.90;44.90;;;;;;5056400;28;20028;-55
2024/01/28 00:18:43;;;;;;;;;;;19.90;44.90;;;;;;5059582;22;19996;-57
2024/01/28 00:21:13;;;;;;;;;;;19.90;44.90;;;;;;5075833;28;19939;-56
2024/01/28 00:23:41;;;;;;;;;;;19.90;44.90;;;;;;5069799;28;19920;-59
2024/01/28 00:26:09;;;;;;;;;;;19.80;44.80;;;;;;5069302;28;19925;-51
2024/01/28 00:28:37;;;;;;;;;;;19.80;44.80;;;;;;5067269;28;19920;-56
2024/01/28 00:31:10;;;;;;;;;;;19.80;44.80;;;;;;5068128;28;19990;-57
2024/01/28 00:33:37;;;;;;;;;;;19.80;44.80;;;;;;5066440;28;19920;-55
2024/01/28 00:36:04;;;;;;;;;;;19.90;44.80;;;;;;5065010;28;19921;-54
2024/01/28 00:38:32;;;;;;;;;;;19.80;44.80;;;;;;5077024;28;19924;-54
2024/01/28 00:40:59;;;;;;;;;;;19.80;44.80;;;;;;5059307;28;19956;-56
2024/01/28 00:43:26;;;;;;;;;;;19.90;44.90;;;;;;5064400;28;19920;-56
2024/01/28 00:45:54;;;;;;;;;;;19.80;44.80;;;;;;5059565;28;19920;-57
2024/01/28 00:48:21;;;;;;;;;;;19.80;44.70;;;;;;5065823;28;19920;-55
2024/01/28 00:50:50;;;;;;;;;;;19.80;44.80;;;;;;5057950;28;19968;-54
2024/01/28 00:53:18;;;;;;;;;;;19.80;44.70;;;;;;5070960;28;19920;-55
2024/01/28 00:55:45;;;;;;;;;;;19.80;44.70;;;;;;5060883;28;19920;-55
2024/01/28 00:58:12;;;;;;;;;;;19.80;44.70;;;;;;5071602;28;19987;-57
2024/01/28 01:00:40;;;;;;;;;;;19.80;44.70;;;;;;5045307;28;19920;-55
2024/01/28 01:03:11;;;;;;;;;;;19.90;44.70;;;;;;5080936;28;19920;-57
2024/01/28 01:05:41;;;;;;;;;;;19.80;44.70;;;;;;5064176;28;19920;-57
2024/01/28 01:08:08;;;;;;;;;;;19.80;44.70;;;;;;5082905;28;20107;-59
2024/01/28 01:10:36;;;;;;;;;;;19.80;44.70;;;;;;5068460;28;20010;-57
2024/01/28 01:13:03;;;;;;;;;;;19.80;44.60;;;;;;5083632;28;19921;-56
2024/01/28 01:15:30;;;;;;;;;;;19.80;44.60;;;;;;5086122;28;19920;-59
2024/01/28 01:17:57;;;;;;;;;;;19.80;44.60;;;;;;5050770;28;20318;-58
2024/01/28 01:20:25;;;;;;;;;;;19.90;44.60;;;;;;5079086;28;19994;-57
2024/01/28 01:22:53;;;;;;;;;;;19.80;44.60;;;;;;5065909;28;19928;-58
2024/01/28 01:25:20;;;;;;;;;;;19.90;44.70;;;;;;5083302;28;20053;-55
2024/01/28 01:27:48;;;;;;;;;;;19.80;44.50;;;;;;5081688;28;19928;-56
2024/01/28 01:30:15;;;;;;;;;;;19.80;45.20;;;;;;5076562;28;20024;-59
2024/01/28 01:32:42;;;;;;;;;;;19.80;44.60;;;;;;5066165;28;19935;-56
2024/01/28 01:35:09;;;;;;;;;;;19.80;44.50;;;;;;5063264;28;19936;-59
2024/01/28 01:37:38;;;;;;;;;;;19.80;44.50;;;;;;5066772;28;19924;-58
2024/01/28 01:40:05;;;;;;;;;;;19.80;44.50;;;;;;5046282;28;19932;-57
2024/01/28 01:42:32;;;;;;;;;;;19.80;44.40;;;;;;5085894;28;19920;-54
2024/01/28 01:44:58;;;;;;;;;;;19.80;44.40;;;;;;5081860;28;19924;-58
2024/01/28 01:47:25;;;;;;;;;;;19.80;44.40;;;;;;5084589;28;19970;-58
2024/01/28 01:49:52;;;;;;;;;;;19.80;44.40;;;;;;5065524;28;19931;-56
2024/01/28 01:52:19;;;;;;;;;;;19.80;44.30;;;;;;5082276;28;19966;-57
2024/01/28 01:54:47;;;;;;;;;;;19.80;44.30;;;;;;5067990;28;19966;-54
2024/01/28 01:57:16;;;;;;;;;;;19.80;44.30;;;;;;5068279;28;19949;-53
2024/01/28 01:59:43;;;;;;;;;;;19.80;44.30;;;;;;5083493;28;19928;-55
2024/01/28 02:02:16;;;;;;;;;;;19.80;44.30;;;;;;5083397;28;19926;-54
2024/01/28 02:04:43;;;;;;;;;;;19.80;44.20;;;;;;5083301;28;19928;-56
2024/01/28 02:07:13;;;;;;;;;;;19.80;44.20;;;;;;5048827;28;19953;-58
2024/01/28 02:09:41;;;;;;;;;;;19.80;44.20;;;;;;5084500;28;19928;-57
2024/01/28 02:12:10;;;;;;;;;;;19.80;44.20;;;;;;5067823;28;19924;-56
2024/01/28 02:14:38;;;;;;;;;;;19.70;44.10;;;;;;5066445;28;20269;-60
2024/01/28 02:17:06;;;;;;;;;;;19.80;44.20;;;;;;5065890;28;19927;-59
2024/01/28 02:19:35;;;;;;;;;;;19.70;44.10;;;;;;5085076;28;19977;-55
2024/01/28 02:22:04;;;;;;;;;;;19.80;44.10;;;;;;5083518;28;19920;-56
2024/01/28 02:24:32;;;;;;;;;;;19.70;44.10;;;;;;5069137;28;19930;-55
2024/01/28 02:26:59;;;;;;;;;;;19.70;44.10;;;;;;5081196;28;19923;-56
2024/01/28 02:29:26;;;;;;;;;;;19.70;44.00;;;;;;5064043;28;19920;-54
2024/01/28 02:31:53;;;;;;;;;;;19.70;44.00;;;;;;5086199;28;19924;-56
2024/01/28 02:34:20;;;;;;;;;;;19.70;44.00;;;;;;5041725;28;19970;-55
2024/01/28 02:36:48;;;;;;;;;;;19.80;44.10;;;;;;5049655;28;19920;-57
2024/01/28 02:39:15;;;;;;;;;;;19.70;44.00;;;;;;5079994;28;20254;-55
2024/01/28 02:41:44;;;;;;;;;;;19.70;44.00;;;;;;5082155;28;19924;-55
2024/01/28 02:44:11;;;;;;;;;;;19.70;44.00;;;;;;5067621;28;19920;-55
2024/01/28 02:46:39;;;;;;;;;;;19.80;44.10;;;;;;5064547;28;19927;-56
2024/01/28 02:49:15;;;;;;;;;;;19.70;44.00;;;;;;5065131;28;19928;-54
2024/01/28 02:51:44;;;;;;;;;;;19.70;44.00;;;;;;5079486;28;19923;-53
2024/01/28 02:54:13;;;;;;;;;;;19.70;43.90;;;;;;5065894;28;20206;-56
2024/01/28 02:56:40;;;;;;;;;;;19.80;44.00;;;;;;5064973;28;19924;-56
2024/01/28 02:59:12;;;;;;;;;;;19.70;43.90;;;;;;5064830;28;19920;-57
2024/01/28 03:01:46;;;;;;;;;;;19.70;43.90;;;;;;5055415;28;19970;-54
2024/01/28 03:04:16;;;;;;;;;;;19.70;43.90;;;;;;5059399;28;19920;-53
2024/01/28 03:06:44;;;;;;;;;;;19.70;43.80;;;;;;5049108;28;19924;-55
2024/01/28 03:09:13;;;;;;;;;;;19.70;43.80;;;;;;5064608;28;19928;-55
2024/01/28 03:11:41;;;;;;;;;;;19.70;43.80;;;;;;5066747;28;19932;-55
2024/01/28 03:14:13;;;;;;;;;;;19.70;43.80;;;;;;5063811;28;20384;-56
2024/01/28 03:16:41;;;;;;;;;;;19.70;43.80;;;;;;5065709;28;19924;-54
2024/01/28 03:19:08;;;;;;;;;;;19.70;43.80;;;;;;5066823;28;19924;-60
2024/01/28 03:21:35;;;;;;;;;;;19.70;43.80;;;;;;5082474;28;19924;-55
2024/01/28 03:24:03;;;;;;;;;;;19.70;43.80;;;;;;5062298;28;19931;-53
2024/01/28 03:26:34;;;;;;;;;;;19.70;43.80;;;;;;5081515;28;19932;-58
2024/01/28 03:29:02;;;;;;;;;;;19.70;43.70;;;;;;5065441;28;19924;-55
2024/01/28 03:31:31;;;;;;;;;;;19.70;43.80;;;;;;5076299;28;19928;-57
2024/01/28 03:33:58;;;;;;;;;;;19.70;43.70;;;;;;5067421;28;19927;-58
2024/01/28 03:36:27;;;;;;;;;;;19.70;43.70;;;;;;5083084;28;19920;-57
2024/01/28 03:38:54;;;;;;;;;;;19.70;43.60;;;;;;5066260;28;19921;-59
2024/01/28 03:41:23;;;;;;;;;;;19.70;43.70;;;;;;5078417;28;19944;-58
2024/01/28 03:43:51;;;;;;;;;;;19.70;43.60;;;;;;5060352;28;19924;-55
2024/01/28 03:46:18;;;;;;;;;;;19.70;43.60;;;;;;5064436;28;19920;-57
2024/01/28 03:48:46;;;;;;;;;;;19.70;43.60;;;;;;5064718;28;19924;-55
2024/01/28 03:51:14;;;;;;;;;;;19.70;43.60;;;;;;5081153;28;19969;-59
2024/01/28 03:53:44;;;;;;;;;;;19.70;43.50;;;;;;5081603;28;19955;-58
2024/01/28 03:56:10;;;;;;;;;;;19.70;43.50;;;;;;5059478;28;20405;-58
2024/01/28 03:58:37;;;;;;;;;;;19.70;43.50;;;;;;5078325;28;19924;-58
2024/01/28 04:01:04;;;;;;;;;;;19.70;43.50;;;;;;5080555;28;19920;-59
2024/01/28 04:03:31;;;;;;;;;;;19.70;43.50;;;;;;5064232;28;19920;-55
2024/01/28 04:05:59;;;;;;;;;;;19.70;43.50;;;;;;5063089;28;19925;-58
2024/01/28 04:08:26;;;;;;;;;;;19.70;43.50;;;;;;5081331;28;19924;-56
2024/01/28 04:10:52;;;;;;;;;;;19.70;43.50;;;;;;5062665;28;20311;-58
2024/01/28 04:13:19;;;;;;;;;;;19.60;43.40;;;;;;5062969;28;19973;-57
2024/01/28 04:15:46;;;;;;;;;;;19.60;43.30;;;;;;5080688;28;19920;-56
2024/01/28 04:18:12;;;;;;;;;;;19.70;43.40;;;;;;5059715;28;19942;-58
2024/01/28 04:20:39;;;;;;;;;;;19.60;43.30;;;;;;5081613;28;19928;-59
2024/01/28 04:23:07;;;;;;;;;;;19.60;43.30;;;;;;5064242;28;19920;-58
2024/01/28 04:25:34;;;;;;;;;;;19.70;43.40;;;;;;5064117;28;19943;-55
2024/01/28 04:28:01;;;;;;;;;;;19.70;43.40;;;;;;5077207;28;19974;-55
2024/01/28 04:30:27;;;;;;;;;;;19.70;43.40;;;;;;5062908;28;19920;-58
2024/01/28 04:32:54;;;;;;;;;;;19.70;43.40;;;;;;5062021;28;19920;-59
2024/01/28 04:35:21;;;;;;;;;;;19.60;43.30;;;;;;5065768;28;20264;-58
2024/01/28 04:37:48;;;;;;;;;;;19.60;43.20;;;;;;5062766;28;19928;-59
2024/01/28 04:40:16;;;;;;;;;;;19.60;43.20;;;;;;5061285;28;20414;-58
2024/01/28 04:42:43;;;;;;;;;;;19.70;43.30;;;;;;5062895;28;19920;-59
2024/01/28 04:45:11;;;;;;;;;;;19.60;43.30;;;;;;5068291;28;19920;-57
2024/01/28 04:47:38;;;;;;;;;;;19.60;43.20;;;;;;5066400;28;19931;-57
2024/01/28 04:50:06;;;;;;;;;;;19.60;43.20;;;;;;5066818;28;19920;-58
2024/01/28 04:52:32;;;;;;;;;;;19.60;43.20;;;;;;5068213;28;19921;-59
2024/01/28 04:54:59;;;;;;;;;;;19.60;43.20;;;;;;5058931;28;19920;-57
2024/01/28 04:57:28;;;;;;;;;;;19.70;43.30;;;;;;5064849;28;19974;-57
2024/01/28 04:59:55;;;;;;;;;;;19.60;43.20;;;;;;5064637;28;19924;-58
2024/01/28 05:02:22;;;;;;;;;;;19.60;43.20;;;;;;5064429;28;19924;-58
2024/01/28 05:04:49;;;;;;;;;;;19.60;43.20;;;;;;5067016;28;19924;-59
2024/01/28 05:07:16;;;;;;;;;;;19.60;43.20;;;;;;5083013;28;19927;-57
2024/01/28 05:09:43;;;;;;;;;;;19.60;43.70;;;;;;5065942;28;19923;-56
2024/01/28 05:12:10;;;;;;;;;;;19.60;43.10;;;;;;5065268;28;19920;-58
2024/01/28 05:14:38;;;;;;;;;;;19.70;43.20;;;;;;5063417;28;19931;-57
2024/01/28 05:17:05;;;;;;;;;;;19.70;43.20;;;;;;5063588;28;20171;-58
2024/01/28 05:19:32;;;;;;;;;;;19.70;43.20;;;;;;5082663;28;19928;-58
2024/01/28 05:21:58;;;;;;;;;;;19.60;43.10;;;;;;5063686;28;19921;-58
2024/01/28 05:24:25;;;;;;;;;;;19.60;43.10;;;;;;5069551;28;19947;-59
2024/01/28 05:26:52;;;;;;;;;;;19.60;43.10;;;;;;5064366;28;20201;-59
2024/01/28 05:29:19;;;;;;;;;;;19.60;43.00;;;;;;5084161;28;19966;-58
2024/01/28 05:31:48;;;;;;;;;;;19.60;43.10;;;;;;5066694;28;19920;-58
2024/01/28 05:34:14;;;;;;;;;;;19.60;43.00;;;;;;5065771;28;19978;-58
2024/01/28 05:36:41;;;;;;;;;;;19.60;42.90;;;;;;5061453;28;19936;-58
2024/01/28 05:39:08;;;;;;;;;;;19.60;42.90;;;;;;5063924;28;19921;-56
2024/01/28 05:41:35;;;;;;;;;;;19.60;42.90;;;;;;5065593;28;19920;-59
2024/01/28 05:44:02;;;;;;;;;;;19.60;42.90;;;;;;5063087;28;19924;-56
2024/01/28 05:46:29;;;;;;;;;;;19.60;42.80;;;;;;5060986;28;19943;-58
2024/01/28 05:48:57;;;;;;;;;;;19.60;42.80;;;;;;5081739;28;20986;-59
2024/01/28 05:51:25;;;;;;;;;;;19.60;42.80;;;;;;5066386;28;19932;-60
2024/01/28 05:53:52;;;;;;;;;;;19.60;42.80;;;;;;5063136;28;19967;-59
2024/01/28 05:56:18;;;;;;;;;;;19.60;42.80;;;;;;5060293;28;19920;-58
2024/01/28 05:58:45;;;;;;;;;;;19.60;42.80;;;;;;5064589;28;19920;-58
2024/01/28 06:01:12;;;;;;;;;;;19.60;42.70;;;;;;5078081;28;19920;-59
2024/01/28 06:03:39;;;;;;;;;;;19.60;42.70;;;;;;5066156;28;19920;-58
2024/01/28 06:06:07;;;;;;;;;;;19.60;42.70;;;;;;5081009;28;20347;-59
2024/01/28 06:08:34;;;;;;;;;;;19.60;42.60;;;;;;5065400;28;20460;-58
2024/01/28 06:11:01;;;;;;;;;;;19.60;42.60;;;;;;5064279;28;19920;-58
2024/01/28 06:13:28;;;;;;;;;;;19.60;42.60;;;;;;5065759;28;19925;-58
2024/01/28 06:15:54;;;;;;;;;;;19.60;42.60;;;;;;5080991;28;19973;-59
2024/01/28 06:18:21;;;;;;;;;;;19.60;42.70;;;;;;5062565;28;19920;-58
2024/01/28 06:20:48;;;;;;;;;;;19.60;42.70;;;;;;5074507;28;19955;-59
2024/01/28 06:23:16;;;;;;;;;;;19.60;42.70;;;;;;5064349;28;19920;-57
2024/01/28 06:25:43;;;;;;;;;;;19.60;42.70;;;;;;5082707;28;20246;-56
2024/01/28 06:28:10;;;;;;;;;;;19.60;42.70;;;;;;5074184;28;19920;-56
2024/01/28 06:30:37;;;;;;;;;;;19.60;42.80;;;;;;5058732;28;19939;-57
2024/01/28 06:33:03;;;;;;;;;;;19.60;42.80;;;;;;5078628;28;19927;-56
2024/01/28 06:35:30;;;;;;;;;;;19.60;42.80;;;;;;5076793;28;20019;-57
2024/01/28 06:37:57;;;;;;;;;;;19.60;42.80;;;;;;5058358;28;20039;-55
2024/01/28 06:40:25;;;;;;;;;;;19.60;42.80;;;;;;5058985;28;19931;-59
2024/01/28 06:42:51;;;;;;;;;;;19.60;42.90;;;;;;5078182;28;19932;-55
2024/01/28 06:45:19;;;;;;;;;;;19.60;42.90;;;;;;5061787;28;19965;-60
2024/01/28 06:47:46;;;;;;;;;;;19.60;42.90;;;;;;5077867;28;19947;-56
2024/01/28 06:50:12;;;;;;;;;;;19.60;42.90;;;;;;5059878;28;19920;-55
2024/01/28 06:52:39;;;;;;;;;;;19.60;42.90;;;;;;5061105;28;19946;-55
2024/01/28 06:55:06;;;;;;;;;;;19.60;42.90;;;;;;5057074;28;20353;-52
2024/01/28 06:57:34;;;;;;;;;;;19.60;43.50;;;;;;5075979;28;19971;-57
2024/01/28 07:00:02;;;;;;;;;;;19.60;42.90;;;;;;5067265;28;19939;-55
2024/01/28 07:02:30;;;;;;;;;;;19.60;42.90;;;;;;5061011;28;20015;-59
2024/01/28 07:04:56;;;;;;;;;;;19.60;42.90;;;;;;5056192;28;19963;-58
2024/01/28 07:07:23;;;;;;;;;;;19.60;42.90;;;;;;5063310;28;19920;-56
2024/01/28 07:09:50;;;;;;;;;;;19.60;42.90;;;;;;5058389;28;20002;-56
2024/01/28 07:12:17;;;;;;;;;;;19.60;42.90;;;;;;5056535;28;19966;-55
2024/01/28 07:14:45;;;;;;;;;;;19.60;42.90;;;;;;5064664;28;19953;-54
2024/01/28 07:17:12;;;;;;;;;;;19.60;42.80;;;;;;5057532;28;19920;-58
2024/01/28 07:19:40;;;;;;;;;;;19.60;42.80;;;;;;5079225;28;19939;-56
2024/01/28 07:22:07;;;;;;;;;;;19.60;42.90;;;;;;5078243;28;19984;-58
2024/01/28 07:24:34;;;;;;;;;;;19.60;42.90;;;;;;5077210;28;19931;-58
2024/01/28 07:27:00;;;;;;;;;;;19.60;43.50;;;;;;5059661;28;19920;-56
2024/01/28 07:29:27;;;;;;;;;;;19.60;42.90;;;;;;5054765;28;19920;-58
2024/01/28 07:31:55;;;;;;;;;;;19.60;42.80;;;;;;5056913;28;19920;-60
2024/01/28 07:34:23;;;;;;;;;;;19.60;42.80;;;;;;5065694;28;19921;-57
2024/01/28 07:36:51;;;;;;;;;;;19.60;42.80;;;;;;5064645;28;19920;-54
2024/01/28 07:39:17;;;;;;;;;;;19.60;42.70;;;;;;5077076;28;19920;-54
2024/01/28 07:41:44;;;;;;;;;;;19.60;42.70;;;;;;5095082;28;19920;-55
2024/01/28 07:44:11;;;;;;;;;;;19.60;42.70;;;;;;5094761;28;19950;-56
2024/01/28 07:46:38;;;;;;;;;;;19.60;42.70;;;;;;5085498;28;19921;-55
2024/01/28 07:49:06;;;;;;;;;;;19.60;42.60;;;;;;5057902;28;20026;-57
2024/01/28 07:51:33;;;;;;;;;;;19.60;42.60;;;;;;5056878;28;19927;-56
2024/01/28 07:54:00;;;;;;;;;;;19.60;42.60;;;;;;5057042;28;19932;-57
2024/01/28 07:56:26;;;;;;;;;;;19.60;42.60;;;;;;5057946;28;19920;-55
2024/01/28 07:58:53;;;;;;;;;;;19.60;42.60;;;;;;5057093;28;19955;-56
2024/01/28 08:01:20;;;;;;;;;;;19.60;42.60;;;;;;5075020;28;20057;-57
2024/01/28 08:03:47;;;;;;;;;;;19.60;42.50;;;;;;5074675;28;19927;-56
2024/01/28 08:06:15;;;;;;;;;;;19.60;42.50;;;;;;5077265;28;19920;-56
2024/01/28 08:08:41;;;;;;;;;;;19.60;42.50;;;;;;5077667;28;19920;-56
2024/01/28 08:11:08;;;;;;;;;;;19.60;42.50;;;;;;5077934;28;19920;-56
2024/01/28 08:13:35;;;;;;;;;;;19.60;42.50;;;;;;5074466;28;19983;-56
2024/01/28 08:16:03;;;;;;;;;;;19.60;42.50;;;;;;5076828;28;19920;-56
2024/01/28 08:18:30;;;;;;;;;;;19.60;42.50;;;;;;5077574;28;19959;-55
2024/01/28 08:20:57;;;;;;;;;;;19.60;42.50;;;;;;5081535;28;19920;-56
2024/01/28 08:23:26;;;;;;;;;;;19.60;42.50;;;;;;5097069;28;20280;-56
2024/01/28 08:25:53;;;;;;;;;;;19.60;42.50;;;;;;5098964;28;20353;-56
2024/01/28 08:28:20;;;;;;;;;;;19.60;42.50;;;;;;5078454;28;19969;-56
2024/01/28 08:30:47;;;;;;;;;;;19.60;43.10;;;;;;5080589;28;19920;-56
2024/01/28 08:33:14;;;;;;;;;;;19.60;42.50;;;;;;5081051;28;19920;-57
2024/01/28 08:35:43;;;;;;;;;;;19.60;42.60;;;;;;5072480;28;20030;-57
2024/01/28 08:38:10;;;;;;;;;;;19.60;42.60;;;;;;5076080;28;19924;-57
2024/01/28 08:40:38;;;;;;;;;;;19.60;42.60;;;;;;5069497;28;19927;-57
2024/01/28 08:43:05;;;;;;;;;;;19.60;42.50;;;;;;5060814;28;19925;-57
2024/01/28 08:45:32;;;;;;;;;;;19.60;42.50;;;;;;5066608;28;20273;-58
2024/01/28 08:47:59;;;;;;;;;;;19.60;42.50;;;;;;5061250;28;20358;-55
2024/01/28 08:50:26;;;;;;;;;;;19.60;42.50;;;;;;5060685;28;20420;-56
2024/01/28 08:52:53;;;;;;;;;;;19.60;42.60;;;;;;5076039;28;19924;-58
2024/01/28 08:55:20;;;;;;;;;;;19.60;42.60;;;;;;5079259;28;19927;-57
2024/01/28 08:57:48;;;;;;;;;;;19.60;42.60;;;;;;5055876;28;19920;-57
2024/01/28 09:00:15;;;;;;;;;;;19.60;42.50;;;;;;5066269;28;20414;-56
2024/01/28 09:02:42;;;;;;;;;;;19.60;42.60;;;;;;5059345;28;19942;-59
2024/01/28 09:05:10;;;;;;;;;;;19.60;43.20;;;;;;5075476;28;19982;-59
2024/01/28 09:07:36;;;;;;;;;;;19.60;42.60;;;;;;5058905;28;19939;-56
2024/01/28 09:10:03;;;;;;;;;;;19.60;42.60;;;;;;5060863;28;19932;-54
2024/01/28 09:12:30;;;;;;;;;;;19.60;42.60;;;;;;5076698;28;19920;-55
2024/01/28 09:14:58;;;;;;;;;;;19.60;42.70;;;;;;5071722;28;20324;-53
2024/01/28 09:17:25;;;;;;;;;;;19.60;42.70;;;;;;5057672;28;19925;-59
2024/01/28 09:19:51;;;;;;;;;;;19.60;42.70;;;;;;5070356;28;19927;-57
2024/01/28 09:22:18;;;;;;;;;;;19.60;42.70;;;;;;5058414;28;20077;-61
2024/01/28 09:24:45;;;;;;;;;;;19.60;42.70;;;;;;5058496;28;19951;-55
2024/01/28 09:27:12;;;;;;;;;;;19.60;42.70;;;;;;5066346;28;19920;-54
2024/01/28 09:29:38;;;;;;;;;;;19.60;42.70;;;;;;5076277;28;19970;-57
2024/01/28 09:32:07;;;;;;;;;;;19.60;42.70;;;;;;5062474;28;19920;-60
2024/01/28 09:34:34;;;;;;;;;;;19.60;42.70;;;;;;5054009;28;19921;-54
2024/01/28 09:37:00;;;;;;;;;;;19.60;42.70;;;;;;5054108;28;19925;-59
2024/01/28 09:39:28;;;;;;;;;;;19.60;42.70;;;;;;5071985;28;19921;-55
2024/01/28 09:41:56;;;;;;;;;;;19.60;42.70;;;;;;5080987;28;19920;-56
2024/01/28 09:44:22;;;;;;;;;;;19.60;42.70;;;;;;5064347;28;19927;-55
2024/01/28 09:46:49;;;;;;;;;;;19.60;42.60;;;;;;5058166;28;19920;-57
2024/01/28 09:49:17;;;;;;;;;;;19.60;42.10;;;;;;5051931;28;19969;-56
2024/01/28 09:51:44;;;;;;;;;;;19.60;41.90;;;;;;5051286;28;20126;-57
2024/01/28 09:54:12;;;;;;;;;;;19.60;41.90;;;;;;5071597;28;19924;-59
2024/01/28 09:56:40;;;;;;;;;;;19.60;42.00;;;;;;5064440;28;19921;-57
2024/01/28 09:59:07;;;;;;;;;;;19.60;42.10;;;;;;5047364;28;19927;-53
2024/01/28 10:01:34;;;;;;;;;;;19.60;42.20;;;;;;5063570;28;19943;-54
2024/01/28 10:04:01;;;;;;;;;;;19.60;42.10;;;;;;5052678;28;19997;-57
2024/01/28 10:06:29;;;;;;;;;;;19.60;42.20;;;;;;5048363;28;20392;-54
2024/01/28 10:08:56;;;;;;;;;;;19.60;42.20;;;;;;5054152;28;19958;-57
2024/01/28 10:11:23;;;;;;;;;;;19.60;42.30;;;;;;5067220;28;19969;-57
2024/01/28 10:13:49;;;;;;;;;;;19.60;42.30;;;;;;5063345;28;19921;-57
2024/01/28 10:16:15;;;;;;;;;;;19.60;42.30;;;;;;5067569;28;19931;-58
2024/01/28 10:18:42;;;;;;;;;;;19.60;42.30;;;;;;5056949;28;19924;-56
2024/01/28 10:21:09;;;;;;;;;;;19.60;42.30;;;;;;5065997;28;19920;-57
2024/01/28 10:23:37;;;;;;;;;;;19.60;42.30;;;;;;5054342;28;19924;-54
2024/01/28 10:26:05;;;;;;;;;;;19.60;40.00;;;;;;5076433;28;19982;-56
2024/01/28 10:28:32;;;;;;;;;;;19.50;33.60;;;;;;5060947;28;19924;-53
2024/01/28 10:30:59;;;;;;;;;;;19.40;34.60;;;;;;5056724;28;19931;-51
2024/01/28 10:33:26;;;;;;;;;;;19.30;36.00;;;;;;5071697;28;19928;-54
2024/01/28 10:35:53;;;;;;;;;;;19.30;37.10;;;;;;5050429;28;19940;-53
2024/01/28 10:38:20;;;;;;;;;;;19.20;37.90;;;;;;5049701;28;19973;-53
2024/01/28 10:40:48;;;;;;;;;;;19.20;39.10;;;;;;5047999;28;19928;-52
2024/01/28 10:43:15;;;;;;;;;;;19.20;39.00;;;;;;5070611;28;19928;-54
2024/01/28 10:45:42;;;;;;;;;;;19.30;39.30;;;;;;5056372;28;19933;-52
2024/01/28 10:48:12;;;;;;;;;;;19.30;39.60;;;;;;5053825;28;20015;-49
2024/01/28 10:50:38;;;;;;;;;;;19.30;39.80;;;;;;5069756;28;19939;-49
2024/01/28 10:53:05;;;;;;;;;;;19.30;40.00;;;;;;5052848;28;19931;-50
2024/01/28 10:55:32;;;;;;;;;;;19.30;40.20;;;;;;5052032;28;19970;-47
2024/01/28 10:58:00;;;;;;;;;;;19.30;40.30;;;;;;5070762;28;19947;-47
2024/01/28 11:00:28;;;;;;;;;;;19.30;40.50;;;;;;5076148;28;19920;-49
2024/01/28 11:02:56;;;;;;;;;;;19.40;40.70;;;;;;5061014;28;19951;-52
2024/01/28 11:05:23;;;;;;;;;;;19.40;40.80;;;;;;5051293;28;19920;-49
2024/01/28 11:07:50;;;;;;;;;;;19.40;40.90;;;;;;5070387;28;19920;-53
2024/01/28 11:10:17;;;;;;;;;;;19.40;40.90;;;;;;5069992;28;19956;-50
2024/01/28 11:12:43;;;;;;;;;;;19.40;41.00;;;;;;5053097;28;19974;-56
2024/01/28 11:15:13;;;;;;;;;;;19.40;41.20;;;;;;5065154;28;19927;-53
2024/01/28 11:17:40;;;;;;;;;;;19.40;41.20;;;;;;5051787;28;19920;-51
2024/01/28 11:20:07;;;;;;;;;;;19.50;41.30;;;;;;5050382;28;19928;-52
2024/01/28 11:22:45;;;;;;;;;;;19.40;41.40;;;;;;5050228;28;19920;-53
2024/01/28 11:25:12;;;;;;;;;;;19.50;41.50;;;;;;5055286;28;19947;-54
2024/01/28 11:27:39;;;;;;;;;;;19.50;41.50;;;;;;5053485;28;20368;-49
2024/01/28 11:30:06;;;;;;;;;;;19.50;41.60;;;;;;5057327;28;19985;-50
2024/01/28 11:32:35;;;;;;;;;;;19.50;41.60;;;;;;5053856;28;19921;-50
2024/01/28 11:35:01;;;;;;;;;;;19.50;41.70;;;;;;5053226;28;20220;-49
2024/01/28 11:37:28;;;;;;;;;;;19.50;41.70;;;;;;5061813;28;19921;-52
2024/01/28 11:39:56;;;;;;;;;;;19.50;41.70;;;;;;5059603;28;20133;-49
2024/01/28 11:42:23;;;;;;;;;;;19.50;42.00;;;;;;5055419;28;20313;-54
2024/01/28 11:44:49;;;;;;;;;;;19.50;41.80;;;;;;5070521;28;19940;-55
2024/01/28 11:47:17;;;;;;;;;;;19.60;42.00;;;;;;5080404;28;19920;-54
2024/01/28 11:49:45;;;;;;;;;;;19.50;41.90;;;;;;5058947;28;19921;-53
2024/01/28 11:52:12;;;;;;;;;;;19.60;42.00;;;;;;5061025;28;19929;-56
2024/01/28 11:54:43;;;;;;;;;;;19.60;42.10;;;;;;5054402;28;20021;-51
2024/01/28 11:57:10;;;;;;;;;;;19.60;42.10;;;;;;5055729;28;19960;-53
2024/01/28 11:59:38;;;;;;;;;;;19.60;42.10;;;;;;5061699;28;20316;-50
2024/01/28 12:02:05;;;;;;;;;;;19.60;42.10;;;;;;5044577;28;19921;-51
2024/01/28 12:04:32;;;;;;;;;;;19.60;42.20;;;;;;5063064;28;19940;-53
2024/01/28 12:07:00;;;;;;;;;;;19.60;42.20;;;;;;5071225;28;19920;-53
2024/01/28 12:09:29;;;;;;;;;;;19.60;42.20;;;;;;5060977;28;19921;-54
2024/01/28 12:11:56;;;;;;;;;;;19.60;42.20;;;;;;5053176;28;19922;-51
2024/01/28 12:14:23;;;;;;;;;;;19.60;42.20;;;;;;5071144;28;19970;-54
2024/01/28 12:16:49;;;;;;;;;;;19.60;42.20;;;;;;5062766;28;19924;-48
2024/01/28 12:19:16;;;;;;;;;;;19.60;42.20;;;;;;5069131;28;19932;-48
2024/01/28 12:21:43;;;;;;;;;;;19.60;42.20;;;;;;5053051;28;19928;-53
2024/01/28 12:24:11;;;;;;;;;;;19.60;42.20;;;;;;5058736;28;19921;-53
2024/01/28 12:26:39;;;;;;;;;;;19.60;42.30;;;;;;5070700;28;19921;-53
2024/01/28 12:29:06;;;;;;;;;;;19.60;42.20;;;;;;5070570;28;19925;-54
2024/01/28 12:31:33;;;;;;;;;;;19.60;42.30;;;;;;5052576;28;19920;-49
2024/01/28 12:33:59;;;;;;;;;;;19.60;42.30;;;;;;5044320;28;19925;-51
2024/01/28 12:36:26;;;;;;;;;;;19.60;42.30;;;;;;5052950;28;19925;-56
2024/01/28 12:38:53;;;;;;;;;;;19.60;42.30;;;;;;5054336;28;19921;-55
2024/01/28 12:41:21;;;;;;;;;;;19.60;42.30;;;;;;5070771;28;19920;-51
2024/01/28 12:43:48;;;;;;;;;;;19.60;42.30;;;;;;5052521;28;19920;-50
2024/01/28 12:46:16;;;;;;;;;;;19.60;42.40;;;;;;5052517;28;19943;-55
2024/01/28 12:48:43;;;;;;;;;;;19.60;42.30;;;;;;5054482;28;19928;-55
2024/01/28 12:51:09;;;;;;;;;;;19.60;42.30;;;;;;5055121;28;19920;-51
2024/01/28 12:53:36;;;;;;;;;;;19.60;43.00;;;;;;5053985;28;20321;-51
2024/01/28 12:56:03;;;;;;;;;;;19.60;42.40;;;;;;5055445;28;19954;-51
2024/01/28 12:58:32;;;;;;;;;;;19.60;42.40;;;;;;5070491;28;19924;-51
2024/01/28 13:00:59;;;;;;;;;;;19.60;42.40;;;;;;5070564;28;19929;-55
2024/01/28 13:03:26;;;;;;;;;;;19.60;42.40;;;;;;5052606;28;19932;-51
2024/01/28 13:05:52;;;;;;;;;;;19.70;42.50;;;;;;5054921;28;19930;-50
2024/01/28 13:08:19;;;;;;;;;;;19.60;42.40;;;;;;5074001;28;19974;-54
2024/01/28 13:10:46;;;;;;;;;;;19.60;42.40;;;;;;5054697;28;19958;-50
2024/01/28 13:13:12;;;;;;;;;;;19.60;42.50;;;;;;5071466;28;19924;-52
2024/01/28 13:15:41;;;;;;;;;;;19.60;42.50;;;;;;5055169;28;19924;-53
2024/01/28 13:18:07;;;;;;;;;;;19.70;42.50;;;;;;5073494;28;19924;-51
2024/01/28 13:20:34;;;;;;;;;;;19.70;42.50;;;;;;5073342;28;19924;-52
2024/01/28 13:23:01;;;;;;;;;;;19.70;42.50;;;;;;5064471;28;20005;-48
2024/01/28 13:25:27;;;;;;;;;;;19.60;42.50;;;;;;5055442;28;19920;-53
2024/01/28 13:27:54;;;;;;;;;;;19.70;42.60;;;;;;5062592;28;19977;-54
2024/01/28 13:30:21;;;;;;;;;;;19.70;42.60;;;;;;5072537;28;20315;-49
2024/01/28 13:32:49;;;;;;;;;;;19.70;42.60;;;;;;5058811;28;19925;-51
2024/01/28 13:35:16;;;;;;;;;;;19.70;42.60;;;;;;5037649;28;19970;-53
2024/01/28 13:37:44;;;;;;;;;;;19.70;42.60;;;;;;5073697;28;19924;-53
2024/01/28 13:40:11;;;;;;;;;;;19.70;42.60;;;;;;5064048;28;19920;-50
2024/01/28 13:42:38;;;;;;;;;;;19.70;42.60;;;;;;5039259;28;19928;-48
2024/01/28 13:45:06;;;;;;;;;;;19.70;42.60;;;;;;5072274;28;19974;-57
2024/01/28 13:47:34;;;;;;;;;;;19.70;42.60;;;;;;5073151;28;20314;-48
2024/01/28 13:50:03;;;;;;;;;;;19.70;42.60;;;;;;5072849;28;19974;-52
2024/01/28 13:52:29;;;;;;;;;;;19.70;42.60;;;;;;5063507;28;19924;-52
2024/01/28 13:54:56;;;;;;;;;;;19.70;42.60;;;;;;5073150;28;19970;-48
2024/01/28 13:57:23;;;;;;;;;;;19.70;42.60;;;;;;5055381;28;19931;-52
2024/01/28 13:59:50;;;;;;;;;;;19.70;42.60;;;;;;5057981;28;19921;-51
2024/01/28 14:02:17;;;;;;;;;;;19.70;42.70;;;;;;5052336;28;19921;-54
2024/01/28 14:04:44;;;;;;;;;;;19.70;42.60;;;;;;5054938;28;19924;-50
2024/01/28 14:07:13;;;;;;;;;;;19.70;42.60;;;;;;5055394;28;19920;-52
2024/01/28 14:09:40;;;;;;;;;;;19.70;42.60;;;;;;5073143;28;19920;-53
2024/01/28 14:12:08;;;;;;;;;;;19.70;42.60;;;;;;5062904;28;19920;-55
2024/01/28 14:14:35;;;;;;;;;;;19.70;42.60;;;;;;5062861;28;19927;-52
2024/01/28 14:17:02;;;;;;;;;;;19.70;42.60;;;;;;5063048;28;19935;-51